Weather History for South St. Paul, MN

Change the Weather History Date:

Tuesday, March 12, 2013

  Actual Average (KMSP) Record (KMSP)
Temperature  
Mean Temperature 26 °F 31 °F  
Max Temperature 30 °F 39 °F 69 °F (1990)
Min Temperature 23 °F 23 °F -8 °F (1956)
Degree Days  
Heating Degree Days 38 34  
Month to date heating degree days 438  
Since 1 July heating degree days 6228  
Cooling Degree Days 0 0  
Month to date cooling degree days 0  
Year to date cooling degree days 0  
Moisture  
Dew Point 15 °F    
Average Humidity 63    
Maximum Humidity 79    
Minimum Humidity 45    
Precipitation  
Precipitation 0.00 in 0.06 in 1.10 in (1899)
Month to date precipitation 0.63  
Year to date precipitation 2.30  
Snow  
Snow 0.00 in 0.40 in 11.00 in (1899)
Month to date snowfall 4.9  
Since 1 July snowfall 46.6  
Snow Depth -    
Sea Level Pressure  
Sea Level Pressure 29.94 in    
Wind  
Wind Speed 9 mph (NW)    
Max Wind Speed 20 mph    
Max Gust Speed 28 mph    
Visibility 10 miles    
Events Snow    
T = Trace of Precipitation, MM = Missing Value Source: NWS Daily Summary

Daily Weather History Graph

Daily Weather History Graph

Search for Another Location

Airport:

Trip Planner

Search our weather history database for the weather conditions in past years. The results will help you decide how hot, cold, wet, or windy it might be!

Date:

Astronomy

Mar. 12, 2013 Rise Set
Actual Time 7:29 AM CDT 7:14 PM CDT
Civil Twilight 7:00 AM CDT 7:43 PM CDT
Nautical Twilight 6:26 AM CDT 8:17 PM CDT
Astronomical Twilight 5:52 AM CDT 8:52 PM CDT
Moon 7:32 AM CDT (3/12) 8:35 PM CDT (3/12)
Length of Visible Light 12h 43m
Length of Day
11h 45m
New Moon, 1% of the Moon is Illuminated
Mar 12
New Moon
Mar 19
First Quarter
Mar 27
Full
Apr 2
Last Quarter
Apr 10
New

Hourly Weather History & Observations

Time (CDT) Temp. Windchill Dew Point Humidity Pressure Visibility Wind Dir Wind Speed Gust Speed Precip Events Conditions
12:12 AM 24.8 °F 16.1 °F 18.5 °F 77% 29.84 in 10.0 mi West 8.1 mph - N/A   Clear
12:32 AM 24.6 °F 17.7 °F 18.5 °F 78% 29.84 in 10.0 mi West 5.8 mph - N/A   Clear
12:52 AM 23.9 °F 15.8 °F 18.3 °F 79% 29.84 in 10.0 mi West 6.9 mph - N/A   Clear
1:12 AM 23.7 °F 14.7 °F 17.6 °F 77% 29.83 in 10.0 mi West 8.1 mph - N/A   Clear
1:32 AM 23.0 °F 14.7 °F 17.4 °F 79% 29.83 in 10.0 mi West 6.9 mph - N/A   Clear
1:52 AM 23.0 °F 15.8 °F 17.1 °F 78% 29.83 in 10.0 mi West 5.8 mph - N/A   Scattered Clouds
2:12 AM 23.5 °F 15.4 °F 17.1 °F 76% 29.83 in 10.0 mi West 6.9 mph - N/A   Overcast
2:32 AM 23.7 °F 16.6 °F 16.5 °F 74% 29.83 in 10.0 mi West 5.8 mph - N/A   Overcast
2:52 AM 23.9 °F 16.8 °F 16.5 °F 73% 29.83 in 10.0 mi West 5.8 mph - N/A   Overcast
3:12 AM 23.7 °F 15.6 °F 16.3 °F 73% 29.83 in 10.0 mi West 6.9 mph - N/A   Overcast
3:32 AM 23.7 °F 15.6 °F 16.2 °F 73% 29.83 in 10.0 mi West 6.9 mph - N/A   Overcast
3:52 AM 23.9 °F 18.0 °F 15.8 °F 71% 29.83 in 10.0 mi West 4.6 mph - N/A   Overcast
4:12 AM 24.4 °F 17.5 °F 15.8 °F 70% 29.82 in 10.0 mi West 5.8 mph - N/A   Overcast
4:32 AM 24.6 °F 16.7 °F 15.1 °F 67% 29.83 in 10.0 mi West 6.9 mph - N/A   Overcast
4:52 AM 24.8 °F 17.9 °F 14.9 °F 66% 29.83 in 10.0 mi WNW 5.8 mph - N/A   Overcast
5:12 AM 24.8 °F 17.9 °F 15.1 °F 67% 29.83 in 10.0 mi WNW 5.8 mph - N/A   Overcast
5:32 AM 24.8 °F 19.1 °F 15.4 °F 68% 29.84 in 10.0 mi WNW 4.6 mph - N/A   Overcast
5:52 AM 25.2 °F 19.5 °F 15.6 °F 67% 29.85 in 10.0 mi WNW 4.6 mph - N/A   Overcast
6:12 AM 25.2 °F 18.3 °F 16.0 °F 68% 29.85 in 10.0 mi NW 5.8 mph - N/A   Overcast
6:32 AM 25.3 °F 16.7 °F 15.8 °F 67% 29.85 in 10.0 mi NW 8.1 mph - N/A   Overcast
6:52 AM 25.2 °F 18.3 °F 16.0 °F 68% 29.86 in 10.0 mi NW 5.8 mph - N/A   Overcast
7:12 AM 24.8 °F 16.1 °F 16.7 °F 71% 29.86 in 10.0 mi NNW 8.1 mph - N/A   Overcast
7:32 AM 24.6 °F 15.8 °F 16.9 °F 72% 29.86 in 7.0 mi NW 8.1 mph - N/A Snow Light Snow
7:52 AM 24.6 °F 16.7 °F 17.2 °F 74% 29.87 in 10.0 mi NW 6.9 mph - N/A   Overcast
8:12 AM 24.6 °F 15.1 °F 17.1 °F 73% 29.87 in 10.0 mi NW 9.2 mph - N/A   Overcast
8:52 AM 23.9 °F 15.8 °F 17.8 °F 77% 29.88 in 5.0 mi NNW 6.9 mph - N/A   Haze
9:12 AM 24.6 °F 13.8 °F 17.6 °F 75% 29.89 in 10.0 mi NNW 11.5 mph 16.1 mph N/A   Overcast
9:32 AM 24.8 °F 16.1 °F 17.2 °F 73% 29.90 in 10.0 mi NW 8.1 mph - N/A   Overcast
9:52 AM 25.2 °F 15.1 °F 17.6 °F 73% 29.90 in 10.0 mi NW 10.4 mph - N/A   Overcast
10:12 AM 25.2 °F 17.3 °F 17.2 °F 72% 29.91 in 10.0 mi NW 6.9 mph - N/A   Overcast
10:32 AM 26.4 °F 16.0 °F 16.2 °F 65% 29.91 in 10.0 mi NW 11.5 mph - N/A   Overcast
10:52 AM 26.6 °F 16.2 °F 15.3 °F 62% 29.91 in 10.0 mi NW 11.5 mph - N/A   Overcast
11:12 AM 27.1 °F 16.9 °F 15.3 °F 61% 29.92 in 10.0 mi NW 11.5 mph 19.6 mph N/A   Mostly Cloudy
11:32 AM 27.3 °F 17.7 °F 15.6 °F 61% 29.92 in 10.0 mi NNW 10.4 mph 20.7 mph N/A   Mostly Cloudy
11:52 AM 27.0 °F 16.1 °F 16.5 °F 65% 29.93 in 10.0 mi NNW 12.7 mph - N/A   Overcast
12:12 PM 27.1 °F 15.9 °F 16.9 °F 65% 29.93 in 10.0 mi NNW 13.8 mph 18.4 mph N/A   Overcast
12:32 PM 27.5 °F 16.3 °F 17.1 °F 65% 29.94 in 10.0 mi NW 13.8 mph 19.6 mph N/A   Overcast
12:52 PM 27.9 °F 15.5 °F 16.7 °F 63% 29.94 in 10.0 mi NW 17.3 mph 20.7 mph N/A   Overcast
1:12 PM 27.9 °F 16.3 °F 16.9 °F 63% 29.94 in 10.0 mi WNW 15.0 mph 21.9 mph N/A   Overcast
1:32 PM 28.9 °F 16.5 °F 16.2 °F 59% 29.94 in 10.0 mi NW 18.4 mph 21.9 mph N/A   Overcast
1:52 PM 28.4 °F 17.0 °F 15.4 °F 58% 29.95 in 10.0 mi NW 15.0 mph 23.0 mph N/A   Overcast
2:12 PM 28.4 °F 17.5 °F 15.4 °F 58% 29.95 in 10.0 mi NW 13.8 mph 23.0 mph N/A   Overcast
2:32 PM 28.6 °F 16.0 °F 15.4 °F 58% 29.95 in 10.0 mi NNW 18.4 mph 25.3 mph N/A   Overcast
2:52 PM 29.1 °F 16.4 °F 16.0 °F 58% 29.95 in 10.0 mi NNW 19.6 mph 27.6 mph N/A   Overcast
3:12 PM 28.9 °F 17.3 °F 17.2 °F 62% 29.95 in 10.0 mi WNW 16.1 mph 20.7 mph N/A   Overcast
3:32 PM 29.3 °F 17.0 °F 16.5 °F 59% 29.96 in 10.0 mi WNW 18.4 mph 24.2 mph N/A   Overcast
3:52 PM 29.1 °F 16.4 °F 16.0 °F 58% 29.96 in 10.0 mi NW 19.6 mph 24.2 mph N/A   Overcast
4:12 PM 28.9 °F 16.9 °F 16.0 °F 58% 29.97 in 10.0 mi NNW 17.3 mph 26.5 mph N/A   Overcast
4:32 PM 29.7 °F 17.8 °F 12.9 °F 50% 29.97 in 10.0 mi NW 17.3 mph 24.2 mph N/A   Overcast
4:52 PM 29.7 °F 18.2 °F 12.4 °F 49% 29.98 in 10.0 mi NW 16.1 mph 23.0 mph N/A   Overcast
5:12 PM 29.8 °F 18.4 °F 12.0 °F 48% 29.98 in 10.0 mi NW 16.1 mph 25.3 mph N/A   Overcast
5:32 PM 30.2 °F 19.8 °F 11.8 °F 47% 29.99 in 10.0 mi NNW 13.8 mph 27.6 mph N/A   Overcast
5:52 PM 29.3 °F 20.2 °F 10.2 °F 45% 30.00 in 10.0 mi North 10.4 mph 18.4 mph N/A   Mostly Cloudy
6:12 PM 28.9 °F 19.8 °F 10.2 °F 46% 30.01 in 10.0 mi NNW 10.4 mph 24.2 mph N/A   Scattered Clouds
6:32 PM 28.9 °F 18.2 °F 9.9 °F 45% 30.02 in 10.0 mi NNW 13.8 mph 21.9 mph N/A   Scattered Clouds
6:52 PM 28.9 °F 19.2 °F 10.8 °F 47% 30.03 in 10.0 mi NNW 11.5 mph - N/A   Mostly Cloudy
7:12 PM 28.8 °F 18.4 °F 11.8 °F 49% 30.04 in 10.0 mi North 12.7 mph 18.4 mph N/A   Overcast
7:32 PM 28.4 °F 17.0 °F 11.8 °F 50% 30.05 in 10.0 mi NNW 15.0 mph 20.7 mph N/A   Overcast
7:52 PM 27.9 °F 15.5 °F 12.4 °F 52% 30.07 in 10.0 mi NNW 17.3 mph 25.3 mph N/A   Mostly Cloudy
8:12 PM 27.3 °F 16.6 °F 12.9 °F 55% 30.08 in 10.0 mi NNW 12.7 mph 23.0 mph N/A   Mostly Cloudy
8:32 PM 27.1 °F 14.5 °F 13.5 °F 56% 30.09 in 10.0 mi North 17.3 mph 21.9 mph N/A   Mostly Cloudy
8:52 PM 26.6 °F 17.5 °F 14.4 °F 60% 30.10 in 10.0 mi NNW 9.2 mph 19.6 mph N/A   Scattered Clouds
9:12 PM 26.6 °F 16.8 °F 14.0 °F 59% 30.11 in 10.0 mi NNW 10.4 mph 18.4 mph N/A   Clear
9:32 PM 26.6 °F 15.2 °F 14.0 °F 59% 30.12 in 10.0 mi NNW 13.8 mph 23.0 mph N/A   Clear
9:52 PM 26.4 °F 16.0 °F 13.1 °F 57% 30.13 in 10.0 mi North 11.5 mph 20.7 mph N/A   Clear
10:12 PM 26.4 °F 14.5 °F 12.6 °F 56% 30.13 in 10.0 mi NNW 15.0 mph 25.3 mph N/A   Clear
10:32 PM 26.1 °F 15.0 °F 12.2 °F 56% 30.14 in 10.0 mi North 12.7 mph 17.3 mph N/A   Clear
10:52 PM 25.7 °F 16.4 °F 12.2 °F 57% 30.15 in 10.0 mi North 9.2 mph 17.3 mph N/A   Clear
11:12 PM 25.5 °F 19.9 °F 12.2 °F 57% 30.15 in 10.0 mi NNW 4.6 mph - N/A   Clear
11:32 PM 25.0 °F 16.3 °F 12.2 °F 58% 30.16 in 10.0 mi NNW 8.1 mph - N/A   Clear
11:52 PM 24.6 °F 15.1 °F 11.7 °F 58% 30.17 in 10.0 mi NNW 9.2 mph - N/A   Clear